Time;durP1;ratioP1;P1;durP2;ratioP2;P2;SDS_P1;SDS_P2;PMS_P1;PMS_P2;Temp;Humidity;BMP_temperature;BMP_pressure;BME280_temperature;BME280_humidity;BME280_pressure;Samples;Min_cycle;Max_cycle;Signal;HPM_P1;HPM_P2
2021/09/27 00:00:56;;;;;;;7.60;2.50;;;;;;;9.31;77.78;101115.50;1727496;81;21671;-70
2021/09/27 00:03:22;;;;;;;5.97;2.72;;;;;;;9.29;77.71;101110.95;1727329;82;21044;-70
2021/09/27 00:05:49;;;;;;;6.05;2.60;;;;;;;9.26;77.65;101118.89;1735183;80;21200;-70
2021/09/27 00:08:16;;;;;;;7.55;2.95;;;;;;;9.24;77.67;101114.83;1738879;81;21043;-71
2021/09/27 00:11:00;;;;;;;5.95;2.85;;;;;;;9.19;77.71;101118.20;1734770;80;21789;-70
2021/09/27 00:13:30;;;;;;;6.28;2.85;;;;;;;9.16;77.73;101122.67;1731781;82;21024;-70
2021/09/27 00:15:57;;;;;;;8.00;3.00;;;;;;;9.10;77.82;101120.41;1730144;80;21005;-70
2021/09/27 00:18:24;;;;;;;10.50;3.20;;;;;;;9.06;77.93;101130.44;1731105;81;21039;-70
2021/09/27 00:20:54;;;;;;;5.85;2.45;;;;;;;9.01;78.08;101124.45;1696781;82;21059;-69
2021/09/27 00:23:21;;;;;;;7.15;2.58;;;;;;;8.99;78.21;101129.23;1690033;82;21114;-70
2021/09/27 00:25:47;;;;;;;8.10;3.10;;;;;;;8.97;78.41;101133.16;1721764;81;21100;-70
2021/09/27 00:28:14;;;;;;;11.88;3.27;;;;;;;8.95;78.56;101133.91;1725325;80;21515;-70
2021/09/27 00:30:41;;;;;;;7.83;2.90;;;;;;;8.92;78.72;101144.52;1738663;80;21159;-71
2021/09/27 00:33:08;;;;;;;9.98;3.55;;;;;;;8.90;78.91;101146.59;1736936;80;21074;-71
2021/09/27 00:35:36;;;;;;;9.53;3.20;;;;;;;8.86;79.10;101151.58;1728525;80;21637;-70
2021/09/27 00:38:07;;;;;;;12.03;3.60;;;;;;;8.84;79.29;101147.52;1729427;82;21036;-71
2021/09/27 00:40:41;;;;;;;9.45;3.35;;;;;;;8.83;79.43;101146.70;1732504;80;21588;-70
2021/09/27 00:43:08;;;;;;;13.35;3.65;;;;;;;8.80;79.57;101140.51;1728299;80;21047;-70
2021/09/27 00:45:40;;;;;;;10.18;3.52;;;;;;;8.79;79.73;101143.42;1728680;82;21060;-70
2021/09/27 00:48:07;;;;;;;10.10;3.22;;;;;;;8.76;79.88;101136.69;1739639;81;21775;-70
2021/09/27 00:50:38;;;;;;;13.43;3.90;;;;;;;8.77;80.05;101138.83;1704986;84;21021;-70
2021/09/27 00:53:10;;;;;;;15.48;3.52;;;;;;;8.76;80.18;101144.68;1704848;83;21037;-70
2021/09/27 00:55:37;;;;;;;9.63;3.27;;;;;;;8.76;80.30;101147.88;1694921;83;21041;-70
2021/09/27 00:58:03;;;;;;;10.93;3.22;;;;;;;8.75;80.38;101149.70;1744131;80;21066;-70
2021/09/27 01:00:30;;;;;;;12.07;3.85;;;;;;;8.75;80.44;101153.69;1739304;80;21500;-70
2021/09/27 01:02:57;;;;;;;9.75;3.27;;;;;;;8.76;80.46;101149.20;1733450;80;21063;-69
2021/09/27 01:05:24;;;;;;;10.20;3.45;;;;;;;8.78;80.48;101157.23;1660539;85;21781;-69
2021/09/27 01:08:14;;;;;;;13.50;3.75;;;;;;;8.81;80.46;101154.11;1741968;80;21023;-70
2021/09/27 01:10:59;;;;;;;11.46;3.26;;;;;;;8.83;80.45;101157.36;1625311;80;9999599;-71
2021/09/27 01:13:54;;;;;;;9.28;2.87;;;;;;;8.87;80.40;101159.85;1704642;80;21090;-72
2021/09/27 01:16:50;;;;;;;9.98;3.30;;;;;;;8.91;80.31;101154.87;1727707;80;21118;-70
2021/09/27 01:19:42;;;;;;;8.08;3.02;;;;;;;8.95;80.20;101160.05;1732019;80;21173;-72
2021/09/27 01:22:34;;;;;;;14.03;3.65;;;;;;;8.97;80.11;101160.61;1737175;80;21097;-72
2021/09/27 01:25:09;;;;;;;11.43;3.67;;;;;;;8.95;80.02;101165.37;1731621;82;21863;-72
2021/09/27 01:27:46;;;;;;;11.55;3.92;;;;;;;8.93;80.01;101166.92;1737256;81;21853;-70
2021/09/27 01:30:38;;;;;;;10.68;3.37;;;;;;;8.90;80.02;101168.72;1743746;82;21081;-73
2021/09/27 01:33:26;;;;;;;13.32;3.47;;;;;;;8.87;80.04;101167.84;1730395;80;21118;-73
2021/09/27 01:36:16;;;;;;;14.85;3.65;;;;;;;8.82;80.11;101169.07;1738192;81;21068;-72
2021/09/27 01:38:51;;;;;;;11.55;3.85;;;;;;;8.78;80.28;101168.41;1734988;80;22223;-71
2021/09/27 01:41:44;;;;;;;8.85;2.77;;;;;;;8.73;80.42;101170.97;1732301;77;20961;-68
2021/09/27 01:44:19;;;;;;;7.58;3.00;;;;;;;8.71;80.52;101177.03;1735457;79;20989;-71
2021/09/27 01:47:00;;;;;;;7.75;3.00;;;;;;;8.68;80.73;101174.30;1735243;79;21486;-71
2021/09/27 01:49:41;;;;;;;7.58;3.05;;;;;;;8.67;80.87;101177.48;1677658;84;21161;-70
2021/09/27 01:52:21;;;;;;;6.20;2.83;;;;;;;8.68;81.01;101183.09;1699700;80;21117;-70
2021/09/27 01:54:54;;;;;;;6.05;2.90;;;;;;;8.66;81.04;101181.72;1735495;80;20969;-71
2021/09/27 01:57:47;;;;;;;4.85;2.33;;;;;;;8.64;81.10;101184.59;1740529;81;21079;-70
2021/09/27 02:00:22;;;;;;;4.97;2.62;;;;;;;8.63;81.16;101189.64;1742313;77;21042;-69
2021/09/27 02:03:06;;;;;;;5.22;2.83;;;;;;;8.60;81.33;101190.09;1733740;79;21012;-72
2021/09/27 02:06:08;;;;;;;5.35;2.50;;;;;;;8.57;81.49;101186.55;1738552;77;21470;-71
2021/09/27 02:08:58;;;;;;;8.55;2.67;;;;;;;8.56;81.66;101192.93;1742807;79;21030;-70
2021/09/27 02:11:32;;;;;;;6.33;2.50;;;;;;;8.55;81.79;101201.12;1611073;80;10000283;-70
2021/09/27 02:14:05;;;;;;;5.30;2.80;;;;;;;8.59;81.82;101199.66;1735155;80;20933;-70
2021/09/27 02:16:59;;;;;;;4.05;2.20;;;;;;;8.59;81.87;101195.66;1735309;78;21445;-70
2021/09/27 02:19:34;;;;;;;5.58;2.75;;;;;;;8.58;82.05;101197.48;1744901;80;21103;-72
2021/09/27 02:22:25;;;;;;;5.87;2.40;;;;;;;8.57;82.18;101197.20;1732683;80;21082;-73
2021/09/27 02:25:15;;;;;;;4.70;2.15;;;;;;;8.60;82.25;101202.60;1732393;81;21122;-71
2021/09/27 02:27:41;;;;;;;4.30;2.30;;;;;;;8.62;82.26;101201.34;1731697;80;21084;-71
2021/09/27 02:30:11;;;;;;;4.35;2.45;;;;;;;8.65;82.24;101201.38;1737697;80;22147;-71
2021/09/27 02:33:18;;;;;;;4.78;2.50;;;;;;;8.67;82.21;101205.45;1730561;80;21079;-71
2021/09/27 02:35:59;;;;;;;3.95;2.42;;;;;;;8.68;82.19;101204.40;1732680;80;21562;-71
2021/09/27 02:38:44;;;;;;;5.53;2.35;;;;;;;8.73;82.19;101205.06;1735369;80;21601;-71
2021/09/27 02:41:19;;;;;;;6.25;2.67;;;;;;;8.75;82.21;101210.95;1647407;84;21117;-72
2021/09/27 02:43:47;;;;;;;5.20;2.75;;;;;;;8.77;82.17;101216.87;1733481;80;21226;-72
2021/09/27 02:46:14;;;;;;;4.72;2.75;;;;;;;8.78;82.13;101212.36;1733776;80;21043;-72
2021/09/27 02:48:54;;;;;;;5.87;2.55;;;;;;;8.75;82.11;101220.28;1730163;80;21565;-72
2021/09/27 02:51:18;;;;;;;4.22;2.62;;;;;;;8.74;82.10;101212.53;1735068;82;21066;-73
2021/09/27 02:53:50;;;;;;;4.92;2.65;;;;;;;8.71;82.07;101215.12;1733903;80;21581;-70
2021/09/27 02:56:47;;;;;;;4.85;2.60;;;;;;;8.65;82.11;101218.20;1738450;80;21648;-70
2021/09/27 03:00:06;;;;;;;4.58;2.72;;;;;;;8.60;82.16;101218.05;1705616;82;21122;-70
2021/09/27 03:03:05;;;;;;;7.10;2.92;;;;;;;8.53;82.27;101225.33;1729184;82;21066;-69
2021/09/27 03:06:18;;;;;;;4.75;2.55;;;;;;;8.46;82.44;101223.29;1717416;80;21732;-70
2021/09/27 03:09:12;;;;;;;5.83;2.83;;;;;;;8.40;82.62;101212.20;1732405;80;21114;-70
2021/09/27 03:12:09;;;;;;;5.80;2.50;;;;;;;8.34;82.88;101217.07;1737696;80;21076;-70
2021/09/27 03:14:57;;;;;;;5.65;2.83;;;;;;;8.30;82.99;101214.05;1737407;80;21046;-71
2021/09/27 03:17:38;;;;;;;5.95;3.55;;;;;;;8.23;83.20;101212.81;1740277;81;21108;-70
2021/09/27 03:20:46;;;;;;;6.15;3.50;;;;;;;8.19;83.38;101218.30;1738878;80;21122;-71
2021/09/27 03:23:24;;;;;;;4.92;3.15;;;;;;;8.17;83.50;101215.56;1738368;80;21103;-71
2021/09/27 03:26:02;;;;;;;5.03;2.95;;;;;;;8.10;83.71;101218.30;1734815;80;21671;-71
2021/09/27 03:28:55;;;;;;;5.55;3.30;;;;;;;8.07;83.90;101225.92;1731473;82;20948;-71
2021/09/27 03:31:29;;;;;;;5.50;3.08;;;;;;;8.01;84.03;101226.29;1735140;80;21550;-70
2021/09/27 03:34:35;;;;;;;5.50;2.75;;;;;;;7.97;84.33;101219.28;1704098;83;21003;-70
2021/09/27 03:37:39;;;;;;;4.67;2.72;;;;;;;7.93;84.63;101226.09;1698726;82;21045;-70
2021/09/27 03:41:10;;;;;;;5.55;2.80;;;;;;;7.88;84.90;101227.25;1740585;80;21122;-70
2021/09/27 03:44:22;;;;;;;5.25;2.90;;;;;;;7.83;85.20;101232.44;1719218;82;21098;-70
2021/09/27 04:02:54;;;;;;;5.12;2.92;;;;;;;7.68;86.37;101244.76;1742917;80;21531;-71
2021/09/27 04:06:12;;;;;;;9.80;3.75;;;;;;;7.68;86.55;101245.28;1679171;83;21045;-69
2021/09/27 04:08:55;;;;;;;4.67;2.98;;;;;;;7.68;86.73;101240.77;1678983;85;21002;-70
2021/09/27 04:11:59;;;;;;;5.15;3.00;;;;;;;7.71;86.74;101238.20;1676173;84;21497;-70
2021/09/27 04:14:40;;;;;;;5.40;2.67;;;;;;;7.68;86.89;101247.42;1659228;84;21105;-70
2021/09/27 04:17:15;;;;;;;6.50;2.45;;;;;;;7.68;87.02;101250.08;1678684;85;21612;-70
2021/09/27 04:20:07;;;;;;;4.87;2.60;;;;;;;7.71;87.12;101249.64;1653699;86;21044;-70
2021/09/27 04:22:48;;;;;;;5.08;2.60;;;;;;;7.71;87.20;101250.97;1670165;85;21147;-70
2021/09/27 04:25:39;;;;;;;4.25;2.58;;;;;;;7.75;87.18;101244.17;1676593;85;21060;-70
2021/09/27 04:28:30;;;;;;;5.28;2.77;;;;;;;7.75;87.24;101256.14;1679967;85;21106;-70
2021/09/27 04:31:40;;;;;;;4.83;2.40;;;;;;;7.76;87.25;101254.28;1680862;83;21141;-70
2021/09/27 04:34:44;;;;;;;4.70;2.40;;;;;;;7.83;87.22;101255.55;1680245;85;21293;-69
2021/09/27 04:37:10;;;;;;;4.35;2.52;;;;;;;7.86;87.17;101260.42;1678778;85;21544;-70
2021/09/27 04:39:39;;;;;;;5.22;2.75;;;;;;;7.89;87.14;101261.31;1680460;83;21553;-69
2021/09/27 04:42:34;;;;;;;6.50;3.20;;;;;;;7.92;87.07;101255.03;1679391;85;21151;-70
2021/09/27 04:45:07;;;;;;;5.80;3.20;;;;;;;7.95;86.97;101259.91;1680404;85;21588;-70
2021/09/27 04:47:59;;;;;;;6.37;3.90;;;;;;;8.02;86.74;101255.03;1677767;83;21157;-70
2021/09/27 04:51:05;;;;;;;4.60;3.20;;;;;;;8.01;86.67;101245.44;1670731;85;21125;-69
2021/09/27 04:54:10;;;;;;;6.97;3.10;;;;;;;8.04;86.54;101241.81;1677986;85;21153;-69
2021/09/27 04:57:18;;;;;;;5.53;2.83;;;;;;;8.07;86.43;101240.03;1678724;83;20972;-70
2021/09/27 05:00:16;;;;;;;4.33;2.65;;;;;;;8.12;86.34;101249.99;1680153;83;21097;-70
2021/09/27 05:02:51;;;;;;;5.92;2.70;;;;;;;8.17;86.25;101250.15;1692116;84;21549;-70
2021/09/27 05:05:46;;;;;;;4.03;2.60;;;;;;;8.21;86.04;101244.14;1658501;85;21066;-70
2021/09/27 05:08:39;;;;;;;5.72;2.85;;;;;;;8.22;85.93;101244.43;1669197;85;21147;-70
2021/09/27 05:11:30;;;;;;;6.30;2.85;;;;;;;8.29;85.84;101242.20;1658870;85;21065;-71
2021/09/27 05:14:24;;;;;;;5.20;2.90;;;;;;;8.32;85.69;101246.56;1614341;84;21077;-70
2021/09/27 05:17:18;;;;;;;5.78;2.35;;;;;;;8.38;85.59;101246.22;1672088;83;21621;-71
2021/09/27 05:20:07;;;;;;;5.42;2.80;;;;;;;8.43;85.33;101242.38;1653921;84;21556;-70
2021/09/27 05:22:47;;;;;;;4.80;2.60;;;;;;;8.51;85.14;101247.37;1670205;84;21306;-70
2021/09/27 05:25:45;;;;;;;6.05;2.90;;;;;;;8.57;84.91;101261.64;1670536;83;21084;-69
2021/09/27 05:28:39;;;;;;;5.55;2.87;;;;;;;8.60;84.58;101255.86;1675790;84;21018;-70
2021/09/27 05:31:47;;;;;;;4.05;2.60;;;;;;;8.66;84.34;101261.09;1678432;85;21015;-70
2021/09/27 05:34:31;;;;;;;4.60;2.22;;;;;;;8.70;83.98;101260.11;1675767;83;21030;-71
2021/09/27 05:37:25;;;;;;;5.50;2.50;;;;;;;8.77;83.88;101270.15;1680755;83;21127;-70
2021/09/27 05:40:19;;;;;;;4.15;2.20;;;;;;;8.84;83.71;101266.05;1672779;84;21093;-70
2021/09/27 05:43:28;;;;;;;3.60;2.00;;;;;;;8.95;83.49;101261.30;1676125;84;21057;-70
2021/09/27 05:46:22;;;;;;;6.15;2.20;;;;;;;9.03;82.96;101264.14;1655662;83;21065;-70
2021/09/27 05:49:05;;;;;;;4.50;2.20;;;;;;;9.11;82.60;101269.12;1679009;83;21140;-70
2021/09/27 05:51:47;;;;;;;7.10;1.90;;;;;;;9.17;82.15;101256.20;1674914;84;21200;-69
2021/09/27 05:54:40;;;;;;;3.90;2.10;;;;;;;9.22;81.65;101260.87;1676482;84;21053;-69
2021/09/27 05:57:13;;;;;;;4.97;2.20;;;;;;;9.27;81.36;101255.64;1678061;84;21070;-71
2021/09/27 05:59:53;;;;;;;4.00;1.95;;;;;;;9.36;81.23;101259.06;1680255;84;21471;-70
2021/09/27 06:02:25;;;;;;;4.20;2.15;;;;;;;9.47;81.16;101258.77;1678504;83;21062;-70
2021/09/27 06:05:32;;;;;;;5.08;2.33;;;;;;;9.55;80.93;101256.30;1680144;83;21099;-70
2021/09/27 06:08:30;;;;;;;3.62;1.90;;;;;;;9.65;80.57;101262.38;1595992;88;21076;-70
2021/09/27 06:11:29;;;;;;;3.33;1.85;;;;;;;9.73;79.98;101253.48;1656077;83;21635;-69
2021/09/27 06:13:56;;;;;;;3.40;1.77;;;;;;;9.81;79.42;101256.33;1678482;83;21151;-71
2021/09/27 06:16:52;;;;;;;3.22;1.90;;;;;;;9.87;79.04;101259.38;1677581;83;21603;-72
2021/09/27 06:19:36;;;;;;;3.50;1.75;;;;;;;9.93;78.42;101256.30;1674875;84;21138;-71
2021/09/27 06:22:19;;;;;;;3.17;1.75;;;;;;;9.99;78.34;101255.36;1678282;83;21071;-72
2021/09/27 06:25:11;;;;;;;2.70;1.40;;;;;;;10.10;77.97;101264.69;1663000;85;21046;-72
2021/09/27 06:27:51;;;;;;;4.22;1.90;;;;;;;10.17;77.48;101261.04;1672293;85;21037;-72
2021/09/27 06:30:27;;;;;;;3.25;1.42;;;;;;;10.28;77.20;101266.92;1676480;83;21050;-72
2021/09/27 06:33:25;;;;;;;2.70;1.50;;;;;;;10.39;76.73;101258.57;1677801;85;21115;-72
2021/09/27 06:35:52;;;;;;;3.05;1.30;;;;;;;10.48;76.32;101257.95;1675288;83;21073;-72
2021/09/27 06:38:28;;;;;;;4.03;1.70;;;;;;;10.60;75.51;101249.09;1679689;84;20979;-73
2021/09/27 06:40:55;;;;;;;4.50;1.35;;;;;;;10.69;74.89;101254.30;1678739;83;21046;-72
2021/09/27 06:43:24;;;;;;;2.72;1.20;;;;;;;10.74;74.51;101253.87;1677140;83;20998;-73
2021/09/27 06:45:51;;;;;;;4.73;1.20;;;;;;;10.82;74.29;101253.20;1645202;85;21130;-73
2021/09/27 06:48:19;;;;;;;2.35;1.30;;;;;;;10.89;73.44;101253.34;1637564;85;21641;-74
2021/09/27 06:50:46;;;;;;;3.47;1.20;;;;;;;10.98;73.34;101248.39;1614967;87;21093;-75
2021/09/27 06:53:12;;;;;;;3.33;1.20;;;;;;;11.10;72.96;101255.81;1671049;84;21600;-75
2021/09/27 06:55:39;;;;;;;2.90;1.27;;;;;;;11.18;72.27;101251.91;1683438;82;21098;-72
2021/09/27 06:58:06;;;;;;;2.90;1.30;;;;;;;11.26;71.80;101252.33;1686687;82;21224;-74
2021/09/27 07:00:32;;;;;;;2.17;1.30;;;;;;;11.28;70.62;101254.21;1687020;82;21298;-75
2021/09/27 07:02:59;;;;;;;2.40;1.20;;;;;;;11.27;70.60;101254.47;1680179;83;21230;-75
2021/09/27 07:05:26;;;;;;;4.00;1.30;;;;;;;11.26;70.26;101259.55;1615480;87;21640;-76
2021/09/27 07:07:53;;;;;;;3.00;1.20;;;;;;;11.32;69.90;101259.91;1681243;83;21317;-75
2021/09/27 07:10:22;;;;;;;2.77;1.10;;;;;;;11.42;69.90;101257.38;1677537;83;21617;-78
2021/09/27 07:12:49;;;;;;;2.30;1.10;;;;;;;11.53;69.57;101252.98;1678724;83;21702;-75
2021/09/27 07:15:15;;;;;;;3.80;1.40;;;;;;;11.59;68.97;101249.33;1676492;83;21255;-77
2021/09/27 07:17:42;;;;;;;2.07;1.10;;;;;;;11.60;68.82;101256.29;1677634;83;21302;-73
2021/09/27 07:20:14;;;;;;;3.13;1.30;;;;;;;11.65;68.81;101248.88;1678896;85;21304;-75
2021/09/27 07:22:41;;;;;;;;;;;;;;;11.70;68.58;101253.75;1680826;84;21716;-73
2021/09/27 07:25:09;;;;;;;2.23;1.03;;;;;;;11.77;67.84;101251.42;1676581;83;20132;-72
2021/09/27 07:27:36;;;;;;;2.00;0.90;;;;;;;11.83;67.69;101247.23;1678344;84;21245;-74
2021/09/27 07:30:06;;;;;;;2.07;0.90;;;;;;;11.91;66.99;101249.52;1678726;85;21344;-74
2021/09/27 07:32:32;;;;;;;1.30;0.83;;;;;;;12.04;66.69;101254.20;1680958;83;21261;-73
2021/09/27 07:34:59;;;;;;;1.77;0.80;;;;;;;12.20;66.12;101253.32;1678685;83;21309;-71
2021/09/27 07:37:26;;;;;;;2.13;1.10;;;;;;;12.35;65.31;101250.83;1679380;83;21310;-73
2021/09/27 07:39:52;;;;;;;3.73;1.40;;;;;;;12.43;64.54;101257.05;1678884;83;21147;-75
2021/09/27 07:42:19;;;;;;;2.17;1.20;;;;;;;12.48;64.09;101258.20;1684255;83;21860;-76
2021/09/27 07:44:45;;;;;;;1.80;1.10;;;;;;;12.60;63.74;101245.44;1699630;83;21323;-73
2021/09/27 07:47:12;;;;;;;3.47;1.30;;;;;;;12.71;63.41;101251.19;1687787;83;21927;-73
2021/09/27 07:49:39;;;;;;;2.47;1.10;;;;;;;12.79;62.57;101253.39;1690326;83;21338;-71
2021/09/27 07:52:06;;;;;;;3.77;1.30;;;;;;;12.87;62.57;101253.48;1691183;83;21352;-69
2021/09/27 07:54:33;;;;;;;2.57;1.30;;;;;;;13.00;62.76;101253.05;1679043;83;21418;-70
2021/09/27 07:57:02;;;;;;;2.57;1.20;;;;;;;13.19;62.36;101248.08;1681509;84;21431;-69
2021/09/27 07:59:29;;;;;;;3.47;1.20;;;;;;;13.40;61.38;101253.10;1649896;85;21513;-68
2021/09/27 08:01:56;;;;;;;2.30;0.97;;;;;;;13.56;60.73;101244.62;1642249;85;21937;-69
2021/09/27 08:04:22;;;;;;;1.50;1.00;;;;;;;13.64;59.77;101256.19;1616806;86;21391;-71
2021/09/27 08:06:49;;;;;;;2.40;1.20;;;;;;;13.58;59.12;101252.66;1629262;86;21410;-69
2021/09/27 08:09:16;;;;;;;4.17;1.27;;;;;;;13.51;59.17;101245.92;1677008;83;21729;-69
2021/09/27 08:11:43;;;;;;;3.93;1.20;;;;;;;13.52;58.62;101250.20;1677025;83;22012;-70
2021/09/27 08:14:11;;;;;;;1.50;0.90;;;;;;;13.52;58.62;101250.20;1677941;83;21649;-71
2021/09/27 08:16:39;;;;;;;2.03;1.10;;;;;;;13.57;57.96;101251.59;1678142;83;21428;-69
2021/09/27 08:19:06;;;;;;;2.43;1.10;;;;;;;13.57;57.96;101251.59;1679752;84;22010;-69
2021/09/27 08:21:34;;;;;;;1.80;1.10;;;;;;;13.65;58.41;101249.74;1677561;83;22022;-69
2021/09/27 08:24:00;;;;;;;2.40;1.10;;;;;;;13.78;57.80;101249.27;1678482;83;21528;-70
2021/09/27 08:26:28;;;;;;;1.93;1.00;;;;;;;13.74;57.82;101256.78;1675395;84;22000;-70
2021/09/27 08:28:55;;;;;;;1.70;0.90;;;;;;;13.78;57.66;101257.87;1678316;83;21612;-75
2021/09/27 08:31:23;;;;;;;2.37;1.00;;;;;;;13.78;57.66;101257.87;1642100;85;21801;-71
2021/09/27 08:33:53;;;;;;;3.20;1.17;;;;;;;13.41;58.15;101260.61;1636928;87;21691;-71
2021/09/27 08:36:23;;;;;;;2.37;1.20;;;;;;;13.41;58.15;101260.61;1672286;84;21648;-72
2021/09/27 08:38:51;;;;;;;1.77;1.00;;;;;;;13.26;58.18;101262.14;1672977;84;20984;-72
2021/09/27 08:41:27;;;;;;;2.77;1.20;;;;;;;13.18;58.63;101262.56;1675267;85;21636;-69
2021/09/27 08:44:28;;;;;;;1.73;1.13;;;;;;;13.16;58.67;101257.98;1677558;83;21054;-70
2021/09/27 08:47:10;;;;;;;1.70;0.98;;;;;;;13.15;58.62;101261.20;1672185;84;21920;-70
2021/09/27 08:49:51;;;;;;;1.60;0.80;;;;;;;13.13;58.38;101261.20;1678889;84;21545;-71
2021/09/27 08:52:21;;;;;;;2.67;1.00;;;;;;;13.06;57.46;101261.92;1676927;85;21644;-72
2021/09/27 08:54:52;;;;;;;2.33;0.80;;;;;;;13.00;57.93;101266.46;1672524;83;21567;-70
2021/09/27 08:57:59;;;;;;;1.53;0.80;;;;;;;13.03;58.63;101258.41;1678288;83;22036;-70
2021/09/27 09:00:49;;;;;;;2.10;1.03;;;;;;;13.09;57.94;101258.20;1673695;83;21770;-70
2021/09/27 09:03:29;;;;;;;3.00;0.90;;;;;;;13.09;57.94;101258.20;1677285;84;22404;-70
2021/09/27 09:06:04;;;;;;;2.87;0.90;;;;;;;13.19;57.98;101252.10;1674176;83;21445;-69
2021/09/27 09:08:54;;;;;;;1.43;0.80;;;;;;;13.19;57.98;101252.10;1659292;83;21630;-70
2021/09/27 09:11:56;;;;;;;2.17;0.90;;;;;;;13.19;56.47;101252.10;1626484;84;21789;-70
2021/09/27 09:14:49;;;;;;;1.82;0.65;;;;;;;13.19;56.47;101252.10;1678309;83;21561;-70
2021/09/27 09:17:53;;;;;;;2.07;0.73;;;;;;;13.13;56.19;101258.52;1672374;85;21513;-69
2021/09/27 09:20:50;;;;;;;3.30;0.67;;;;;;;13.40;56.47;101248.27;1673040;84;21719;-69
2021/09/27 09:23:23;;;;;;;1.17;0.80;;;;;;;13.40;56.47;101248.27;1677428;84;21921;-72
2021/09/27 09:25:49;;;;;;;1.50;0.60;;;;;;;13.69;54.99;101249.52;1678823;84;21595;-69
2021/09/27 09:28:17;;;;;;;1.13;0.50;;;;;;;13.96;54.67;101235.14;1677328;85;22035;-71
2021/09/27 09:31:15;;;;;;;1.87;0.67;;;;;;;14.29;52.75;101241.42;1660139;84;21734;-70
2021/09/27 09:33:54;;;;;;;1.97;0.60;;;;;;;14.53;51.98;101240.95;1677591;83;21749;-71
2021/09/27 09:36:29;;;;;;;0.70;0.60;;;;;;;14.72;50.78;101231.30;1674256;84;21823;-71
2021/09/27 09:38:59;;;;;;;1.47;0.70;;;;;;;14.85;50.71;101232.66;1675679;85;21872;-73
2021/09/27 09:41:40;;;;;;;0.70;0.60;;;;;;;15.00;49.71;101235.36;1651563;85;21781;-71
2021/09/27 09:44:35;;;;;;;2.23;0.57;;;;;;;14.99;47.71;101236.95;1630637;85;21900;-68
2021/09/27 09:47:23;;;;;;;0.77;0.50;;;;;;;14.86;47.04;101232.92;1629557;86;21811;-71
2021/09/27 09:50:08;;;;;;;0.90;0.60;;;;;;;14.77;47.74;101234.02;1629069;86;21783;-69
2021/09/27 09:52:45;;;;;;;0.80;0.40;;;;;;;14.86;47.18;101225.39;1672888;85;21781;-70
2021/09/27 09:55:24;;;;;;;0.93;0.60;;;;;;;14.89;46.06;101230.23;1672397;84;21117;-70
2021/09/27 09:57:59;;;;;;;1.33;0.53;;;;;;;14.81;46.04;101241.52;1672243;84;22232;-71
2021/09/27 10:00:54;;;;;;;0.63;0.50;;;;;;;14.66;46.24;101244.47;1681026;83;21219;-69
2021/09/27 10:03:33;;;;;;;0.93;0.60;;;;;;;14.55;46.99;101242.86;1681218;83;21662;-70
2021/09/27 10:06:15;;;;;;;0.60;0.50;;;;;;;14.51;47.87;101242.58;1657390;85;21737;-69
2021/09/27 10:08:58;;;;;;;1.00;0.60;;;;;;;14.52;47.55;101238.02;1661331;83;20995;-70
2021/09/27 10:11:58;;;;;;;0.77;0.50;;;;;;;14.55;47.37;101236.14;1679642;84;21768;-70
2021/09/27 10:14:35;;;;;;;1.30;0.70;;;;;;;14.55;47.63;101236.14;1677583;84;21077;-68
2021/09/27 10:17:16;;;;;;;0.80;0.60;;;;;;;14.50;47.95;101237.42;1680982;84;21035;-69
2021/09/27 10:19:55;;;;;;;0.80;0.60;;;;;;;14.47;47.91;101241.45;1676840;83;21129;-69
2021/09/27 10:22:25;;;;;;;2.37;0.80;;;;;;;14.42;48.42;101239.31;1681011;84;20971;-69
2021/09/27 10:24:58;;;;;;;1.70;0.60;;;;;;;14.42;48.85;101243.34;1680680;85;22211;-70
2021/09/27 10:27:33;;;;;;;1.30;0.70;;;;;;;14.49;48.49;101246.03;1677750;84;21767;-70
2021/09/27 10:30:10;;;;;;;2.00;0.90;;;;;;;14.47;48.28;101245.48;1681203;83;21051;-70
2021/09/27 10:32:50;;;;;;;1.73;0.80;;;;;;;14.47;48.28;101245.48;1681485;83;21027;-70
2021/09/27 10:35:40;;;;;;;1.20;0.70;;;;;;;14.40;48.74;101249.50;1666346;83;21788;-70
2021/09/27 10:38:15;;;;;;;0.77;0.60;;;;;;;14.32;49.09;101252.18;1679372;84;21724;-70
2021/09/27 10:40:45;;;;;;;0.50;0.50;;;;;;;14.25;49.59;101248.41;1676455;83;21092;-72
2021/09/27 10:43:18;;;;;;;0.70;0.50;;;;;;;14.25;49.59;101248.41;1674982;84;21548;-70
2021/09/27 10:45:52;;;;;;;3.07;0.83;;;;;;;14.21;50.39;101251.86;1678663;85;21057;-70
2021/09/27 10:48:19;;;;;;;2.53;0.87;;;;;;;14.19;50.89;101246.77;1683220;83;21680;-71
2021/09/27 10:50:53;;;;;;;1.33;0.80;;;;;;;14.21;50.72;101243.27;1703068;83;21649;-70
2021/09/27 10:53:30;;;;;;;1.17;0.60;;;;;;;14.23;50.76;101243.81;1678992;83;21740;-71
2021/09/27 10:56:38;;;;;;;2.43;0.80;;;;;;;14.25;50.56;101244.38;1678147;84;21737;-71
2021/09/27 10:59:12;;;;;;;1.60;0.70;;;;;;;14.25;51.04;101247.60;1678650;84;21936;-71
2021/09/27 11:01:57;;;;;;;1.83;0.80;;;;;;;14.21;50.65;101249.98;1647780;85;21693;-71
2021/09/27 11:04:39;;;;;;;1.27;0.80;;;;;;;14.18;51.11;101251.05;1678522;85;21701;-71
2021/09/27 11:07:29;;;;;;;2.30;1.02;;;;;;;14.14;51.38;101252.11;1659410;84;21849;-70
2021/09/27 11:09:57;;;;;;;5.87;1.60;;;;;;;14.11;52.58;101256.66;1678456;85;21026;-71
2021/09/27 11:12:36;;;;;;;3.93;1.40;;;;;;;14.06;53.72;101252.63;1637117;84;21772;-70
2021/09/27 11:15:22;;;;;;;4.07;1.33;;;;;;;14.03;54.00;101253.16;1673742;83;21791;-70
2021/09/27 11:18:17;;;;;;;5.13;1.50;;;;;;;14.02;54.68;101258.27;1660797;84;21754;-70
2021/09/27 11:21:22;;;;;;;3.27;1.37;;;;;;;14.04;55.06;101269.53;1675592;85;22276;-69
2021/09/27 11:24:06;;;;;;;3.60;1.60;;;;;;;14.03;55.07;101252.62;1657219;85;22228;-71
2021/09/27 11:26:37;;;;;;;5.33;1.43;;;;;;;14.01;55.04;101249.91;1590862;86;21770;-71
2021/09/27 11:29:50;;;;;;;3.90;1.30;;;;;;;13.97;55.21;101256.89;1629554;86;22328;-71
2021/09/27 11:32:29;;;;;;;5.23;1.33;;;;;;;13.91;55.53;101253.36;1655632;85;21720;-69
2021/09/27 11:35:28;;;;;;;4.50;1.30;;;;;;;13.89;56.05;101254.72;1674804;84;22222;-69
2021/09/27 11:38:26;;;;;;;4.10;1.30;;;;;;;13.85;56.14;101253.06;1672002;84;21752;-71
2021/09/27 11:40:58;;;;;;;2.47;1.20;;;;;;;13.79;56.31;101254.94;1681607;83;22147;-69
2021/09/27 11:43:37;;;;;;;2.50;1.30;;;;;;;13.74;56.50;101254.90;1657289;85;21755;-70
2021/09/27 11:46:09;;;;;;;3.37;1.20;;;;;;;13.64;57.15;101252.70;1680301;83;21749;-69
2021/09/27 11:48:51;;;;;;;4.00;1.30;;;;;;;13.48;57.25;101255.83;1680991;83;22202;-69
2021/09/27 11:51:25;;;;;;;3.20;1.47;;;;;;;13.44;57.38;101253.39;1660750;85;21708;-68
2021/09/27 11:54:23;;;;;;;5.40;1.60;;;;;;;13.44;57.38;101253.39;1677479;84;21764;-68
2021/09/27 11:57:20;;;;;;;4.37;1.43;;;;;;;13.41;57.81;101252.56;1678765;83;21512;-70
2021/09/27 12:00:25;;;;;;;3.43;1.60;;;;;;;13.42;58.58;101262.22;1676688;84;21679;-70
2021/09/27 12:03:23;;;;;;;4.17;1.70;;;;;;;13.42;58.58;101262.22;1677181;85;21410;-69
2021/09/27 12:06:08;;;;;;;6.20;1.93;;;;;;;13.42;57.97;101255.52;1673866;83;21528;-71
2021/09/27 12:09:03;;;;;;;2.77;1.33;;;;;;;13.51;58.71;101256.11;1676984;83;21736;-70
2021/09/27 12:11:36;;;;;;;4.33;1.77;;;;;;;13.55;59.06;101258.55;1644556;86;21920;-69
2021/09/27 12:14:04;;;;;;;4.65;1.55;;;;;;;13.55;59.06;101258.55;1671287;85;21636;-70
2021/09/27 12:16:38;;;;;;;4.37;1.80;;;;;;;13.66;58.87;101262.66;1676893;83;21126;-70
2021/09/27 12:19:28;;;;;;;5.57;1.80;;;;;;;13.66;58.87;101262.66;1676989;83;21696;-70
2021/09/27 12:22:11;;;;;;;6.10;2.43;;;;;;;13.87;59.52;101252.28;1673162;83;21904;-70
2021/09/27 12:24:42;;;;;;;4.40;1.97;;;;;;;14.04;58.82;101252.08;1687421;83;21721;-70
2021/09/27 12:27:18;;;;;;;4.43;1.80;;;;;;;14.16;58.99;101255.36;1677360;83;21655;-70
2021/09/27 12:30:02;;;;;;;6.30;2.60;;;;;;;14.16;58.99;101255.36;1676585;83;22285;-70
2021/09/27 12:32:36;;;;;;;8.73;2.58;;;;;;;14.20;58.52;101244.34;1676954;83;21564;-70
2021/09/27 12:35:15;;;;;;;5.87;2.40;;;;;;;14.25;58.59;101250.28;1675430;83;21663;-69
2021/09/27 12:37:46;;;;;;;7.27;2.30;;;;;;;14.21;58.43;101244.61;1678347;83;22235;-70
2021/09/27 12:40:15;;;;;;;4.92;2.10;;;;;;;14.23;58.93;101249.73;1681497;83;21749;-71
2021/09/27 12:42:55;;;;;;;4.13;1.87;;;;;;;14.26;59.00;101245.17;1680130;84;21046;-70
2021/09/27 12:45:44;;;;;;;3.30;1.70;;;;;;;14.22;58.58;101240.87;1633726;83;22902;-70
2021/09/27 12:48:27;;;;;;;4.10;1.60;;;;;;;14.15;57.83;101245.69;1678958;83;21708;-69